createdAt,value
2023-05-02T00:00:08.481Z,2.09
2023-05-02T00:01:08.490Z,2.00
2023-05-02T00:02:08.528Z,1.90
2023-05-02T00:03:08.540Z,1.91
2023-05-02T00:04:08.613Z,2.10
2023-05-02T00:05:08.508Z,2.46
2023-05-02T00:06:08.581Z,2.93
2023-05-02T00:07:08.559Z,3.33
2023-05-02T00:08:08.604Z,4.22
2023-05-02T00:09:08.635Z,5.38
2023-05-02T00:10:08.658Z,6.34
2023-05-02T00:11:08.682Z,6.04
2023-05-02T00:12:08.725Z,6.00
2023-05-02T00:13:08.753Z,6.93
2023-05-02T00:14:08.796Z,8.68
2023-05-02T00:15:08.795Z,9.43
2023-05-02T00:16:08.830Z,10.31
2023-05-02T00:17:08.853Z,10.60
2023-05-02T00:18:08.912Z,10.83
2023-05-02T00:19:08.896Z,10.66
2023-05-02T00:20:09.054Z,10.18
2023-05-02T00:21:08.975Z,9.49
2023-05-02T00:22:08.996Z,8.52
2023-05-02T00:23:09.048Z,7.23
2023-05-02T00:24:09.097Z,6.45
2023-05-02T00:25:09.137Z,5.98
2023-05-02T00:26:09.174Z,5.25
2023-05-02T00:27:09.244Z,4.99
2023-05-02T00:28:09.270Z,4.83
2023-05-02T00:29:09.329Z,4.89
2023-05-02T00:30:09.361Z,4.90
2023-05-02T00:31:09.437Z,4.64
2023-05-02T00:32:09.430Z,4.87
2023-05-02T00:33:09.522Z,4.92
2023-05-02T00:34:09.516Z,4.75
2023-05-02T00:35:09.530Z,4.96
2023-05-02T00:36:09.565Z,5.33
2023-05-02T00:37:09.588Z,5.69
2023-05-02T00:38:09.625Z,5.78
2023-05-02T00:39:09.695Z,6.17
2023-05-02T00:40:09.702Z,6.80
2023-05-02T00:41:09.721Z,7.06
2023-05-02T00:42:09.763Z,7.06
2023-05-02T00:43:09.814Z,6.80
2023-05-02T00:44:09.869Z,6.81
2023-05-02T00:45:09.882Z,5.37
2023-05-02T00:46:09.960Z,4.84
2023-05-02T00:47:09.975Z,4.70
2023-05-02T00:48:10.040Z,4.26
2023-05-02T00:49:10.068Z,3.98
2023-05-02T00:50:10.083Z,4.20
2023-05-02T00:51:10.148Z,4.46
2023-05-02T00:52:10.176Z,4.76
2023-05-02T00:53:10.204Z,4.58
2023-05-02T00:54:10.258Z,4.30
2023-05-02T00:55:10.281Z,4.08
2023-05-02T00:56:10.294Z,3.89
2023-05-02T00:57:10.340Z,3.89
2023-05-02T00:58:10.376Z,4.20
2023-05-02T00:59:10.433Z,4.11
2023-05-02T01:00:10.438Z,4.07
2023-05-02T01:01:10.526Z,3.84
2023-05-02T01:02:10.603Z,3.52
2023-05-02T01:03:10.585Z,3.49
2023-05-02T01:04:10.747Z,3.37
2023-05-02T01:05:10.620Z,3.47
2023-05-02T01:06:10.648Z,3.69
2023-05-02T01:07:10.696Z,3.62
2023-05-02T01:08:10.740Z,3.74
2023-05-02T01:09:10.792Z,4.00
2023-05-02T01:10:10.813Z,4.18
2023-05-02T01:11:10.870Z,4.40
2023-05-02T01:12:10.908Z,4.47
2023-05-02T01:13:10.959Z,4.47
2023-05-02T01:14:11.016Z,4.43
2023-05-02T01:15:11.066Z,4.32
2023-05-02T01:16:11.135Z,4.61
2023-05-02T01:17:11.159Z,4.50
2023-05-02T01:18:11.212Z,4.51
2023-05-02T01:19:11.221Z,5.25
2023-05-02T01:20:11.260Z,6.10
2023-05-02T01:21:11.343Z,6.86
2023-05-02T01:22:11.358Z,6.87
2023-05-02T01:23:11.428Z,7.01
2023-05-02T01:24:11.445Z,7.27
2023-05-02T01:25:11.517Z,7.27
2023-05-02T01:26:11.565Z,6.48
2023-05-02T01:27:11.601Z,6.23
2023-05-02T01:28:11.637Z,6.24
2023-05-02T01:29:11.686Z,6.13
2023-05-02T01:30:11.770Z,5.90
2023-05-02T01:31:11.841Z,5.85
2023-05-02T01:32:11.841Z,5.84
2023-05-02T01:33:11.954Z,6.19
2023-05-02T01:34:11.984Z,6.01
2023-05-02T01:35:12.001Z,5.84
2023-05-02T01:36:12.083Z,5.47
2023-05-02T01:37:12.101Z,4.89
2023-05-02T01:38:12.153Z,4.78
2023-05-02T01:39:12.184Z,5.04
2023-05-02T01:40:12.249Z,4.75
2023-05-02T01:41:12.321Z,4.71
2023-05-02T01:42:12.353Z,4.81
2023-05-02T01:43:12.417Z,5.16
2023-05-02T01:44:12.464Z,5.13
2023-05-02T01:45:12.517Z,5.40
2023-05-02T01:46:12.624Z,6.12
2023-05-02T01:47:12.686Z,5.88
2023-05-02T01:48:12.667Z,5.87
2023-05-02T01:49:12.706Z,5.60
2023-05-02T01:50:12.753Z,5.05
2023-05-02T01:51:12.813Z,4.81
2023-05-02T01:52:12.832Z,4.77
2023-05-02T01:53:12.898Z,4.52
2023-05-02T01:54:12.934Z,4.19
2023-05-02T01:55:12.996Z,4.24
2023-05-02T01:56:13.062Z,3.92
2023-05-02T01:57:13.090Z,3.96
2023-05-02T01:58:13.170Z,3.73
2023-05-02T01:59:13.174Z,3.25
2023-05-02T02:00:13.249Z,3.08
2023-05-02T02:01:13.397Z,3.00
2023-05-02T02:02:13.347Z,2.81
2023-05-02T02:03:13.427Z,2.90
2023-05-02T02:04:13.506Z,2.88
2023-05-02T02:05:13.506Z,2.91
2023-05-02T02:06:13.568Z,3.12
2023-05-02T02:07:13.575Z,3.39
2023-05-02T02:08:13.661Z,3.46
2023-05-02T02:09:13.711Z,3.33
2023-05-02T02:10:13.749Z,3.36
2023-05-02T02:11:13.832Z,3.06
2023-05-02T02:12:13.850Z,2.87
2023-05-02T02:13:13.892Z,2.90
2023-05-02T02:14:13.944Z,2.98
2023-05-02T02:15:13.992Z,2.52
2023-05-02T02:16:14.136Z,2.45
2023-05-02T02:17:14.079Z,2.47
2023-05-02T02:18:14.173Z,2.46
2023-05-02T02:19:14.180Z,2.71
2023-05-02T02:20:14.222Z,3.20
2023-05-02T02:21:14.325Z,3.55
2023-05-02T02:22:14.342Z,3.79
2023-05-02T02:23:14.401Z,3.72
2023-05-02T02:24:14.490Z,3.57
2023-05-02T02:25:14.520Z,3.47
2023-05-02T02:26:14.592Z,3.67
2023-05-02T02:27:14.612Z,3.83
2023-05-02T02:28:14.672Z,3.45
2023-05-02T02:29:14.733Z,3.39
2023-05-02T02:30:14.792Z,3.62
2023-05-02T02:31:14.872Z,4.05
2023-05-02T02:32:14.872Z,3.74
2023-05-02T02:33:15.000Z,3.41
2023-05-02T02:34:15.027Z,3.68
2023-05-02T02:35:15.091Z,3.32
2023-05-02T02:36:15.154Z,3.39
2023-05-02T02:37:15.191Z,3.53
2023-05-02T02:38:15.253Z,3.55
2023-05-02T02:39:15.330Z,3.48
2023-05-02T02:40:15.341Z,3.40
2023-05-02T02:41:15.429Z,3.71
2023-05-02T02:42:15.471Z,4.35
2023-05-02T02:43:15.519Z,4.57
2023-05-02T02:44:15.540Z,4.30
2023-05-02T02:45:15.584Z,4.13
2023-05-02T02:46:15.715Z,3.89
2023-05-02T02:47:15.682Z,3.77
2023-05-02T02:48:16.656Z,3.19
2023-05-02T02:49:15.856Z,2.86
2023-05-02T02:50:15.833Z,2.90
2023-05-02T02:51:15.960Z,2.94
2023-05-02T02:52:15.903Z,2.87
2023-05-02T02:53:15.938Z,3.15
2023-05-02T02:54:25.803Z,3.70
2023-05-02T02:55:16.976Z,3.72
2023-05-02T02:56:15.968Z,3.79
2023-05-02T02:57:15.944Z,3.73
2023-05-02T02:58:15.947Z,3.86
2023-05-02T02:59:15.966Z,4.30
2023-05-02T03:00:15.944Z,5.05
2023-05-02T03:01:16.016Z,5.35
2023-05-02T03:02:15.922Z,4.48
2023-05-02T03:03:15.983Z,4.62
2023-05-02T03:04:15.956Z,4.59
2023-05-02T03:05:15.896Z,4.68
2023-05-02T03:06:15.971Z,4.67
2023-05-02T03:07:15.897Z,4.77
2023-05-02T03:08:15.871Z,4.67
2023-05-02T03:09:15.939Z,4.81
2023-05-02T03:10:15.852Z,4.21
2023-05-02T03:11:15.925Z,4.05
2023-05-02T03:12:15.949Z,4.11
2023-05-02T03:13:16.020Z,4.24
2023-05-02T03:14:16.083Z,4.29
2023-05-02T03:15:16.138Z,4.31
2023-05-02T03:16:16.242Z,4.72
2023-05-02T03:17:16.204Z,4.94
2023-05-02T03:18:16.332Z,4.45
2023-05-02T03:19:16.344Z,4.41
2023-05-02T03:20:16.371Z,4.46
2023-05-02T03:21:16.420Z,4.62
2023-05-02T03:22:16.470Z,4.60
2023-05-02T03:23:16.518Z,4.33
2023-05-02T03:24:18.892Z,4.30
2023-05-02T03:25:16.551Z,4.62
2023-05-02T03:26:16.543Z,4.95
2023-05-02T03:27:16.543Z,5.09
2023-05-02T03:28:16.554Z,4.96
2023-05-02T03:29:16.569Z,4.98
2023-05-02T03:30:16.577Z,5.33
2023-05-02T03:31:16.544Z,4.94
2023-05-02T03:32:16.514Z,4.80
2023-05-02T03:33:16.652Z,4.94
2023-05-02T03:34:16.515Z,5.00
2023-05-02T03:35:16.486Z,4.82
2023-05-02T03:36:16.496Z,4.71
2023-05-02T03:37:16.480Z,4.98
2023-05-02T03:38:16.465Z,5.40
2023-05-02T03:39:16.525Z,5.62
2023-05-02T03:40:16.504Z,5.98
2023-05-02T03:41:16.455Z,6.11
2023-05-02T03:42:16.432Z,6.40
2023-05-02T03:43:16.429Z,6.88
2023-05-02T03:44:16.454Z,8.01
2023-05-02T03:45:16.440Z,9.39
2023-05-02T03:46:16.444Z,10.76
2023-05-02T03:47:16.403Z,12.46
2023-05-02T03:48:16.414Z,13.92
2023-05-02T03:49:16.416Z,15.41
2023-05-02T03:50:16.387Z,16.26
2023-05-02T03:51:16.364Z,15.60
2023-05-02T03:52:16.395Z,15.31
2023-05-02T03:53:16.372Z,15.54
2023-05-02T03:54:16.372Z,14.91
2023-05-02T03:55:16.355Z,14.08
2023-05-02T03:56:16.353Z,14.35
2023-05-02T03:57:16.349Z,15.04
2023-05-02T03:58:16.337Z,16.23
2023-05-02T03:59:16.353Z,17.85
2023-05-02T04:00:16.329Z,17.86
2023-05-02T04:01:16.314Z,17.89
2023-05-02T04:02:16.341Z,17.95
2023-05-02T04:03:16.320Z,17.37
2023-05-02T04:04:16.596Z,17.57
2023-05-02T04:05:16.296Z,16.79
2023-05-02T04:06:16.292Z,16.04
2023-05-02T04:07:16.295Z,16.17
2023-05-02T04:08:16.289Z,18.17
2023-05-02T04:09:16.258Z,18.15
2023-05-02T04:10:16.365Z,19.73
2023-05-02T04:11:16.284Z,22.04
2023-05-02T04:12:16.263Z,23.49
2023-05-02T04:13:16.237Z,24.18
2023-05-02T04:14:16.263Z,25.55
2023-05-02T04:15:16.245Z,27.30
2023-05-02T04:16:16.257Z,29.89
2023-05-02T04:17:16.398Z,27.83
2023-05-02T04:18:16.291Z,26.96
2023-05-02T04:19:16.238Z,27.38
2023-05-02T04:20:16.207Z,27.24
2023-05-02T04:21:16.223Z,33.11
2023-05-02T04:22:16.274Z,35.16
2023-05-02T04:23:16.290Z,34.52
2023-05-02T04:24:16.371Z,30.52
2023-05-02T04:25:16.365Z,29.29
2023-05-02T04:26:16.422Z,24.95
2023-05-02T04:27:16.452Z,22.38
2023-05-02T04:28:16.482Z,21.43
2023-05-02T04:29:16.559Z,20.95
2023-05-02T04:30:16.547Z,19.09
2023-05-02T04:31:16.563Z,14.10
2023-05-02T04:32:16.585Z,11.58
2023-05-02T04:33:16.669Z,12.17
2023-05-02T04:34:16.686Z,11.44
2023-05-02T04:35:16.708Z,8.35
2023-05-02T04:36:16.739Z,6.82
2023-05-02T04:37:16.780Z,5.78
2023-05-02T04:38:16.801Z,5.24
2023-05-02T04:39:16.844Z,5.45
2023-05-02T04:40:16.866Z,5.21
2023-05-02T04:41:16.914Z,7.01
2023-05-02T04:42:16.972Z,9.77
2023-05-02T04:43:17.000Z,9.03
2023-05-02T04:44:17.038Z,7.71
2023-05-02T04:45:17.083Z,6.98
2023-05-02T04:46:17.147Z,7.20
2023-05-02T04:47:17.132Z,8.72
2023-05-02T04:48:17.167Z,10.73
2023-05-02T04:49:17.231Z,11.80
2023-05-02T04:50:17.236Z,9.99
2023-05-02T04:51:17.316Z,9.55
2023-05-02T04:52:17.276Z,13.05
2023-05-02T04:53:17.304Z,12.04
2023-05-02T04:54:17.354Z,10.89
2023-05-02T04:55:17.382Z,10.88
2023-05-02T04:56:17.418Z,10.92
2023-05-02T04:57:17.448Z,11.24
2023-05-02T04:58:17.488Z,10.81
2023-05-02T04:59:17.499Z,10.30
2023-05-02T05:00:17.544Z,9.33
2023-05-02T05:01:17.607Z,8.97
2023-05-02T05:02:17.748Z,9.32
2023-05-02T05:03:17.731Z,11.53
2023-05-02T05:04:17.696Z,12.56
2023-05-02T05:05:17.721Z,12.49
2023-05-02T05:06:17.668Z,9.85
2023-05-02T05:07:17.717Z,8.06
2023-05-02T05:08:17.752Z,8.26
2023-05-02T05:09:17.788Z,8.63
2023-05-02T05:10:17.793Z,9.13
2023-05-02T05:11:17.809Z,9.43
2023-05-02T05:12:17.841Z,9.02
2023-05-02T05:13:17.866Z,10.32
2023-05-02T05:14:17.884Z,16.73
2023-05-02T05:15:17.902Z,22.39
2023-05-02T05:16:17.961Z,30.56
2023-05-02T05:17:17.922Z,34.82
2023-05-02T05:18:17.908Z,31.96
2023-05-02T05:19:17.902Z,29.02
2023-05-02T05:20:17.960Z,32.17
2023-05-02T05:21:17.954Z,32.80
2023-05-02T05:22:17.997Z,39.08
2023-05-02T05:23:17.980Z,49.18
2023-05-02T05:24:17.997Z,64.71
2023-05-02T05:25:18.070Z,80.84
2023-05-02T05:26:18.080Z,58.05
2023-05-02T05:27:18.114Z,47.01
2023-05-02T05:28:18.156Z,56.22
2023-05-02T05:29:18.164Z,68.27
2023-05-02T05:30:18.183Z,71.40
2023-05-02T05:31:18.217Z,67.55
2023-05-02T05:32:18.260Z,60.30
2023-05-02T05:33:18.328Z,46.02
2023-05-02T05:34:18.297Z,42.82
2023-05-02T05:35:18.200Z,45.89
2023-05-02T05:36:18.201Z,57.07
2023-05-02T05:37:18.234Z,64.13
2023-05-02T05:38:18.483Z,64.39
2023-05-02T05:39:18.282Z,64.03
2023-05-02T05:40:18.240Z,68.45
2023-05-02T05:41:18.326Z,57.60
2023-05-02T05:42:18.283Z,53.80
2023-05-02T05:43:18.266Z,40.76
2023-05-02T05:44:18.289Z,29.23
2023-05-02T05:45:18.360Z,21.35
2023-05-02T05:46:18.319Z,18.64
2023-05-02T05:47:18.498Z,17.22
2023-05-02T05:48:18.486Z,13.98
2023-05-02T05:49:18.551Z,12.00
2023-05-02T05:50:18.678Z,12.86
2023-05-02T05:51:18.591Z,16.26
2023-05-02T05:52:18.769Z,16.38
2023-05-02T05:53:18.608Z,15.68
2023-05-02T05:54:18.650Z,15.05
2023-05-02T05:55:18.601Z,15.24
2023-05-02T05:56:18.638Z,14.28
2023-05-02T05:57:18.660Z,13.11
2023-05-02T05:58:18.647Z,12.39
2023-05-02T05:59:18.697Z,13.45
2023-05-02T06:00:18.772Z,14.46
2023-05-02T06:01:18.776Z,14.35
2023-05-02T06:02:18.883Z,14.78
2023-05-02T06:03:18.904Z,16.10
2023-05-02T06:04:18.922Z,15.28
2023-05-02T06:05:18.965Z,15.22
2023-05-02T06:06:18.986Z,15.65
2023-05-02T06:07:19.038Z,16.61
2023-05-02T06:08:19.060Z,20.56
2023-05-02T06:09:19.112Z,27.87
2023-05-02T06:10:19.131Z,32.16
2023-05-02T06:11:19.152Z,32.41
2023-05-02T06:12:19.218Z,28.44
2023-05-02T06:13:19.201Z,24.70
2023-05-02T06:14:19.253Z,23.05
2023-05-02T06:15:19.284Z,23.83
2023-05-02T06:16:19.325Z,22.12
2023-05-02T06:17:19.679Z,21.74
2023-05-02T06:18:19.414Z,22.17
2023-05-02T06:19:19.445Z,22.35
2023-05-02T06:20:19.507Z,23.18
2023-05-02T06:21:19.500Z,25.29
2023-05-02T06:22:19.571Z,28.21
2023-05-02T06:23:19.571Z,33.68
2023-05-02T06:24:19.610Z,34.51
2023-05-02T06:25:19.616Z,34.76
2023-05-02T06:26:19.617Z,34.98
2023-05-02T06:27:19.668Z,32.94
2023-05-02T06:28:19.678Z,35.11
2023-05-02T06:29:19.676Z,34.75
2023-05-02T06:30:19.712Z,33.56
2023-05-02T06:31:19.784Z,32.51
2023-05-02T06:32:20.218Z,28.70
2023-05-02T06:33:19.777Z,28.48
2023-05-02T06:34:19.810Z,28.84
2023-05-02T06:35:20.151Z,24.69
2023-05-02T06:36:19.844Z,20.55
2023-05-02T06:37:19.861Z,20.95
2023-05-02T06:38:19.892Z,24.06
2023-05-02T06:39:19.886Z,26.98
2023-05-02T06:40:20.172Z,26.79
2023-05-02T06:41:19.919Z,25.78
2023-05-02T06:42:19.948Z,23.76
2023-05-02T06:43:19.985Z,24.95
2023-05-02T06:44:19.979Z,28.68
2023-05-02T06:45:19.975Z,29.28
2023-05-02T06:46:20.030Z,32.40
2023-05-02T06:47:20.036Z,36.47
2023-05-02T06:48:20.258Z,27.70
2023-05-02T06:49:20.040Z,21.73
2023-05-02T06:50:20.049Z,19.36
2023-05-02T06:51:20.052Z,20.51
2023-05-02T06:52:20.122Z,17.73
2023-05-02T06:53:20.089Z,15.32
2023-05-02T06:54:20.109Z,14.98
2023-05-02T06:55:20.178Z,14.68
2023-05-02T06:56:20.132Z,15.51
2023-05-02T06:57:20.130Z,16.46
2023-05-02T06:58:20.131Z,18.43
2023-05-02T06:59:20.170Z,17.63
2023-05-02T07:00:20.166Z,17.50
2023-05-02T07:01:20.170Z,18.91
2023-05-02T07:02:20.150Z,20.36
2023-05-02T07:03:20.166Z,22.40
2023-05-02T07:04:20.247Z,24.65
2023-05-02T07:05:20.170Z,25.56
2023-05-02T07:06:20.202Z,26.04
2023-05-02T07:07:20.167Z,21.08
2023-05-02T07:08:20.187Z,17.20
2023-05-02T07:09:20.168Z,16.59
2023-05-02T07:10:20.189Z,18.28
2023-05-02T07:11:20.195Z,20.97
2023-05-02T07:12:20.203Z,22.23
2023-05-02T07:13:20.232Z,22.70
2023-05-02T07:14:20.222Z,18.15
2023-05-02T07:15:20.266Z,14.58
2023-05-02T07:16:20.643Z,14.39
2023-05-02T07:17:20.371Z,14.16
2023-05-02T07:18:20.325Z,10.83
2023-05-02T07:19:20.341Z,7.13
2023-05-02T07:20:20.299Z,6.23
2023-05-02T07:21:20.335Z,7.15
2023-05-02T07:22:20.287Z,6.93
2023-05-02T07:23:20.665Z,6.93
2023-05-02T07:24:20.365Z,7.38
2023-05-02T07:25:20.672Z,9.12
2023-05-02T07:26:20.328Z,11.54
2023-05-02T07:27:20.337Z,13.01
2023-05-02T07:28:20.666Z,12.92
2023-05-02T07:29:20.367Z,14.60
2023-05-02T07:30:20.713Z,16.48
2023-05-02T07:31:20.426Z,17.43
2023-05-02T07:32:20.608Z,11.77
2023-05-02T07:33:20.601Z,9.81
2023-05-02T07:34:20.567Z,9.44
2023-05-02T07:35:20.616Z,9.29
2023-05-02T07:36:20.653Z,9.50
2023-05-02T07:37:20.700Z,10.41
2023-05-02T07:38:20.767Z,10.98
2023-05-02T07:39:20.836Z,11.92
2023-05-02T07:40:20.921Z,13.60
2023-05-02T07:41:20.956Z,15.00
2023-05-02T07:42:21.000Z,15.49
2023-05-02T07:43:21.009Z,15.02
2023-05-02T07:44:21.066Z,15.33
2023-05-02T07:45:21.073Z,13.94
2023-05-02T07:46:21.142Z,12.66
2023-05-02T07:47:21.114Z,14.11
2023-05-02T07:48:21.219Z,18.31
2023-05-02T07:49:21.212Z,22.88
2023-05-02T07:50:21.243Z,25.99
2023-05-02T07:51:21.279Z,21.37
2023-05-02T07:52:21.320Z,19.97
2023-05-02T07:53:21.352Z,20.71
2023-05-02T07:54:21.388Z,21.00
2023-05-02T07:55:21.464Z,20.42
2023-05-02T07:56:21.471Z,18.82
2023-05-02T07:57:21.486Z,16.41
2023-05-02T07:58:21.709Z,14.41
2023-05-02T07:59:21.596Z,13.95
2023-05-02T08:00:21.638Z,16.62
2023-05-02T08:01:21.655Z,20.60
2023-05-02T08:02:21.916Z,23.07
2023-05-02T08:03:22.340Z,25.38
2023-05-02T08:04:21.854Z,24.97
2023-05-02T08:05:21.788Z,25.52
2023-05-02T08:06:21.881Z,22.80
2023-05-02T08:07:21.832Z,21.94
2023-05-02T08:08:21.881Z,23.16
2023-05-02T08:09:21.849Z,23.66
2023-05-02T08:10:22.209Z,20.79
2023-05-02T08:11:22.586Z,16.02
2023-05-02T08:12:21.917Z,12.89
2023-05-02T08:13:21.923Z,11.55
2023-05-02T08:14:21.915Z,11.02
2023-05-02T08:15:21.923Z,11.68
2023-05-02T08:16:21.990Z,11.77
2023-05-02T08:17:22.029Z,9.85
2023-05-02T08:18:23.686Z,8.73
2023-05-02T08:19:22.143Z,9.81
2023-05-02T08:20:22.082Z,14.00
2023-05-02T08:21:21.993Z,19.10
2023-05-02T08:22:22.013Z,14.78
2023-05-02T08:23:22.065Z,13.30
2023-05-02T08:24:22.047Z,11.39
2023-05-02T08:25:22.068Z,12.17
2023-05-02T08:26:22.083Z,8.91
2023-05-02T08:27:22.249Z,5.05
2023-05-02T08:28:22.094Z,4.22
2023-05-02T08:29:22.113Z,4.74
2023-05-02T08:30:22.146Z,6.50
2023-05-02T08:31:22.184Z,7.54
2023-05-02T08:32:22.163Z,8.06
2023-05-02T08:33:22.285Z,8.69
2023-05-02T08:34:22.167Z,8.30
2023-05-02T08:35:22.180Z,9.23
2023-05-02T08:36:22.198Z,10.43
2023-05-02T08:37:22.202Z,9.32
2023-05-02T08:38:22.713Z,8.27
2023-05-02T08:39:22.297Z,7.57
2023-05-02T08:40:33.941Z,5.84
2023-05-02T08:41:23.269Z,5.11
2023-05-02T08:42:22.251Z,3.89
2023-05-02T08:43:22.268Z,3.48
2023-05-02T08:44:22.237Z,2.98
2023-05-02T08:45:22.244Z,2.88
2023-05-02T08:46:22.256Z,2.42
2023-05-02T08:47:22.345Z,2.21
2023-05-02T08:48:22.694Z,1.86
2023-05-02T08:49:22.194Z,1.72
2023-05-02T08:50:22.255Z,1.69
2023-05-02T08:51:22.201Z,1.70
2023-05-02T08:52:22.208Z,1.88
2023-05-02T08:53:22.185Z,1.76
2023-05-02T08:54:22.166Z,1.54
2023-05-02T08:55:22.172Z,1.43
2023-05-02T08:56:22.167Z,1.31
2023-05-02T08:57:22.173Z,0.81
2023-05-02T08:58:22.167Z,0.73
2023-05-02T08:59:22.216Z,0.78
2023-05-02T09:00:22.330Z,0.61
2023-05-02T09:01:22.473Z,0.47
2023-05-02T09:02:22.427Z,0.57
2023-05-02T09:03:23.764Z,1.02
2023-05-02T09:04:22.513Z,1.31
2023-05-02T09:05:22.497Z,1.15
2023-05-02T09:06:22.617Z,1.15
2023-05-02T09:07:22.641Z,1.37
2023-05-02T09:08:22.686Z,0.88
2023-05-02T09:09:22.749Z,0.88
2023-05-02T09:10:22.819Z,1.08
2023-05-02T09:11:22.905Z,1.00
2023-05-02T09:12:22.927Z,1.03
2023-05-02T09:13:22.960Z,1.19
2023-05-02T09:14:23.014Z,1.09
2023-05-02T09:15:23.045Z,1.11
2023-05-02T09:16:23.412Z,1.22
2023-05-02T09:17:23.165Z,1.32
2023-05-02T09:18:23.248Z,1.51
2023-05-02T09:19:23.227Z,1.66
2023-05-02T09:20:23.257Z,1.59
2023-05-02T09:21:23.260Z,1.47
2023-05-02T09:22:23.293Z,1.27
2023-05-02T09:23:23.717Z,1.22
2023-05-02T09:24:23.310Z,1.77
2023-05-02T09:25:23.266Z,1.39
2023-05-02T09:26:23.325Z,1.04
2023-05-02T09:27:23.337Z,0.95
2023-05-02T09:28:23.756Z,0.87
2023-05-02T09:29:23.341Z,0.52
2023-05-02T09:30:23.752Z,0.50
2023-05-02T09:31:43.564Z,0.58
2023-05-02T09:32:24.428Z,0.59
2023-05-02T09:33:23.708Z,0.61
2023-05-02T09:34:23.348Z,0.57
2023-05-02T09:35:23.376Z,0.59
2023-05-02T09:36:23.365Z,0.54
2023-05-02T09:37:23.341Z,0.58
2023-05-02T09:38:23.377Z,0.63
2023-05-02T09:39:25.573Z,0.53
2023-05-02T09:40:23.344Z,0.55
2023-05-02T09:41:23.457Z,0.53
2023-05-02T09:42:23.324Z,0.52
2023-05-02T09:43:23.300Z,0.54
2023-05-02T09:44:23.290Z,0.60
2023-05-02T09:45:23.298Z,0.65
2023-05-02T09:46:23.365Z,0.50
2023-05-02T09:47:23.286Z,0.50
2023-05-02T09:48:23.262Z,0.56
2023-05-02T09:49:24.387Z,0.53
2023-05-02T09:50:24.214Z,0.50
2023-05-02T09:51:23.240Z,0.49
2023-05-02T09:52:23.254Z,0.51
2023-05-02T09:53:23.221Z,0.58
2023-05-02T09:54:23.207Z,0.65
2023-05-02T09:55:23.251Z,0.61
2023-05-02T09:56:23.951Z,0.43
2023-05-02T09:57:23.319Z,0.34
2023-05-02T09:58:23.258Z,0.34
2023-05-02T09:59:23.187Z,0.46
2023-05-02T10:00:23.194Z,0.58
2023-05-02T10:01:23.198Z,0.67
2023-05-02T10:02:23.175Z,0.71
2023-05-02T10:03:23.166Z,0.72
2023-05-02T10:04:23.200Z,0.57
2023-05-02T10:05:23.175Z,0.50
2023-05-02T10:06:23.248Z,0.49
2023-05-02T10:07:23.196Z,0.49
2023-05-02T10:08:23.213Z,0.51
2023-05-02T10:09:23.137Z,0.51
2023-05-02T10:10:23.179Z,0.53
2023-05-02T10:11:23.231Z,0.57
2023-05-02T10:12:23.199Z,0.71
2023-05-02T10:13:23.233Z,0.89
2023-05-02T10:14:23.311Z,0.73
2023-05-02T10:15:23.367Z,0.59
2023-05-02T10:16:23.491Z,0.58
2023-05-02T10:17:23.459Z,0.56
2023-05-02T10:18:23.510Z,0.62
2023-05-02T10:19:23.553Z,0.73
2023-05-02T10:20:23.609Z,0.76
2023-05-02T10:21:23.662Z,0.76
2023-05-02T10:22:23.717Z,0.52
2023-05-02T10:23:24.308Z,0.54
2023-05-02T10:24:23.909Z,0.56
2023-05-02T10:25:23.927Z,0.62
2023-05-02T10:26:24.235Z,0.68
2023-05-02T10:27:24.731Z,0.46
2023-05-02T10:28:24.263Z,0.36
2023-05-02T10:29:24.106Z,0.45
2023-05-02T10:30:24.175Z,0.55
2023-05-02T10:31:24.251Z,0.52
2023-05-02T10:32:24.297Z,0.48
2023-05-02T10:33:24.742Z,0.50
2023-05-02T10:34:24.395Z,0.54
2023-05-02T10:35:24.461Z,0.54
2023-05-02T10:36:24.737Z,0.53
2023-05-02T10:37:24.551Z,0.50
2023-05-02T10:38:24.930Z,0.50
2023-05-02T10:39:24.652Z,0.50
2023-05-02T10:40:24.729Z,0.49
2023-05-02T10:41:24.760Z,0.54
2023-05-02T10:42:24.809Z,0.63
2023-05-02T10:43:24.841Z,0.50
2023-05-02T10:44:25.856Z,0.50
2023-05-02T10:45:24.952Z,0.50
2023-05-02T10:46:25.010Z,0.53
2023-05-02T10:47:25.262Z,0.57
2023-05-02T10:48:25.145Z,0.55
2023-05-02T10:49:25.178Z,0.57
2023-05-02T10:50:26.049Z,0.60
2023-05-02T10:51:25.299Z,0.55
2023-05-02T10:52:25.354Z,0.49
2023-05-02T10:53:25.399Z,0.51
2023-05-02T10:54:25.463Z,0.56
2023-05-02T10:55:25.526Z,0.72
2023-05-02T10:56:27.746Z,0.82
2023-05-02T10:57:25.591Z,0.78
2023-05-02T10:58:25.589Z,0.71
2023-05-02T10:59:25.557Z,0.81
2023-05-02T11:00:25.545Z,0.81
2023-05-02T11:01:25.913Z,0.73
2023-05-02T11:02:25.611Z,0.81
2023-05-02T11:03:25.553Z,0.73
2023-05-02T11:04:25.513Z,0.95
2023-05-02T11:05:25.532Z,1.13
2023-05-02T11:06:25.514Z,1.29
2023-05-02T11:07:25.520Z,1.47
2023-05-02T11:08:25.492Z,2.69
2023-05-02T11:09:25.501Z,9.15
2023-05-02T11:10:25.482Z,6.73
2023-05-02T11:11:25.484Z,6.30
2023-05-02T11:12:25.475Z,5.32
2023-05-02T11:13:25.484Z,4.43
2023-05-02T11:14:25.491Z,3.72
2023-05-02T11:15:25.457Z,3.03
2023-05-02T11:16:25.857Z,5.31
2023-05-02T11:17:25.486Z,4.36
2023-05-02T11:18:25.496Z,5.33
2023-05-02T11:19:25.448Z,4.64
2023-05-02T11:20:25.460Z,3.47
2023-05-02T11:21:25.417Z,2.52
2023-05-02T11:22:25.472Z,1.87
2023-05-02T11:23:25.419Z,1.14
2023-05-02T11:24:25.410Z,1.13
2023-05-02T11:25:25.432Z,1.22
2023-05-02T11:26:25.407Z,1.22
2023-05-02T11:27:25.411Z,1.11
2023-05-02T11:28:25.369Z,1.03
2023-05-02T11:29:25.368Z,0.88
2023-05-02T11:30:25.378Z,0.79
2023-05-02T11:31:25.442Z,0.68
2023-05-02T11:32:25.455Z,0.70
2023-05-02T11:33:25.362Z,0.75
2023-05-02T11:34:25.341Z,0.58
2023-05-02T11:35:25.348Z,0.49
2023-05-02T11:36:25.331Z,0.51
2023-05-02T11:37:25.314Z,0.59
2023-05-02T11:38:25.327Z,0.68
2023-05-02T11:39:25.313Z,0.74
2023-05-02T11:40:25.302Z,0.65
2023-05-02T11:41:25.318Z,0.59
2023-05-02T11:42:25.282Z,0.50
2023-05-02T11:43:25.274Z,0.52
2023-05-02T11:44:25.255Z,0.57
2023-05-02T11:45:25.247Z,0.62
2023-05-02T11:46:25.321Z,0.68
2023-05-02T11:47:25.261Z,0.52
2023-05-02T11:48:25.246Z,0.47
2023-05-02T11:49:25.222Z,0.50
2023-05-02T11:50:25.232Z,0.57
2023-05-02T11:51:25.220Z,0.76
2023-05-02T11:52:25.220Z,1.17
2023-05-02T11:53:25.212Z,1.06
2023-05-02T11:54:25.208Z,0.88
2023-05-02T11:55:25.198Z,0.77
2023-05-02T11:56:25.183Z,0.91
2023-05-02T11:57:25.175Z,1.00
2023-05-02T11:58:25.161Z,0.82
2023-05-02T11:59:25.155Z,0.94
2023-05-02T12:00:25.167Z,0.82
2023-05-02T12:01:25.174Z,0.62
2023-05-02T12:02:25.181Z,0.50
2023-05-02T12:03:25.300Z,0.55
2023-05-02T12:04:25.124Z,0.66
2023-05-02T12:05:25.146Z,0.72
2023-05-02T12:06:25.140Z,1.06
2023-05-02T12:07:25.124Z,0.92
2023-05-02T12:08:25.256Z,0.78
2023-05-02T12:09:25.173Z,0.67
2023-05-02T12:10:25.199Z,0.75
2023-05-02T12:11:25.205Z,0.91
2023-05-02T12:12:25.217Z,0.87
2023-05-02T12:13:25.281Z,0.99
2023-05-02T12:14:25.317Z,0.78
2023-05-02T12:15:25.334Z,0.73
2023-05-02T12:16:25.405Z,0.63
2023-05-02T12:17:25.403Z,0.58
2023-05-02T12:18:25.408Z,0.63
2023-05-02T12:19:25.417Z,0.83
2023-05-02T12:20:25.430Z,0.89
2023-05-02T12:21:25.458Z,0.78
2023-05-02T12:22:25.472Z,0.75
2023-05-02T12:23:25.459Z,0.82
2023-05-02T12:24:25.483Z,0.81
2023-05-02T12:25:25.465Z,1.05
2023-05-02T12:26:25.684Z,1.55
2023-05-02T12:27:25.503Z,1.85
2023-05-02T12:28:25.489Z,1.10
2023-05-02T12:29:25.499Z,0.87
2023-05-02T12:30:25.476Z,0.78
2023-05-02T12:31:25.651Z,0.74
2023-05-02T12:32:27.398Z,0.82
2023-05-02T12:33:25.524Z,0.84
2023-05-02T12:34:25.550Z,0.72
2023-05-02T12:35:25.560Z,0.79
2023-05-02T12:36:25.566Z,1.03
2023-05-02T12:37:25.549Z,1.25
2023-05-02T12:38:25.601Z,1.36
2023-05-02T12:39:25.595Z,1.36
2023-05-02T12:40:25.589Z,1.32
2023-05-02T12:41:25.581Z,0.83
2023-05-02T12:42:25.593Z,0.59
2023-05-02T12:43:25.635Z,0.69
2023-05-02T12:44:25.624Z,0.72
2023-05-02T12:45:25.630Z,0.68
2023-05-02T12:46:25.685Z,0.60
2023-05-02T12:47:25.703Z,0.53
2023-05-02T12:48:25.668Z,0.50
2023-05-02T12:49:25.655Z,0.59
2023-05-02T12:50:25.661Z,0.72
2023-05-02T12:51:25.665Z,0.48
2023-05-02T12:52:25.684Z,0.34
2023-05-02T12:53:25.683Z,0.34
2023-05-02T12:54:25.699Z,0.34
2023-05-02T12:55:25.712Z,0.34
2023-05-02T12:56:25.734Z,0.34
2023-05-02T12:57:25.801Z,0.55
2023-05-02T12:58:25.766Z,0.74
2023-05-02T12:59:25.764Z,0.95
2023-05-02T13:00:25.804Z,1.40
2023-05-02T13:01:25.867Z,1.89
2023-05-02T13:02:25.839Z,2.21
2023-05-02T13:03:25.911Z,2.12
2023-05-02T13:04:25.873Z,1.81
2023-05-02T13:05:25.892Z,2.22
2023-05-02T13:06:25.948Z,2.98
2023-05-02T13:07:25.916Z,3.89
2023-05-02T13:08:26.313Z,5.01
2023-05-02T13:09:25.961Z,4.98
2023-05-02T13:10:26.005Z,3.91